Time;durP1;ratioP1;P1;durP2;ratioP2;P2;SDS_P1;SDS_P2;PMS_P1;PMS_P2;Temp;Humidity;BMP_temperature;BMP_pressure;BME280_temperature;BME280_humidity;BME280_pressure;Samples;Min_cycle;Max_cycle;Signal;HPM_P1;HPM_P2
2020/12/14 00:02:21;;;;;;;69.72;37.15;;;;;;;-0.21;77.95;95975.03;4997331;28;20045;-54
2020/12/14 00:04:48;;;;;;;67.18;37.00;;;;;;;-0.13;77.79;95976.69;4997898;28;20064;-53
2020/12/14 00:07:16;;;;;;;62.20;36.75;;;;;;;-0.14;77.76;95969.91;5000264;28;20050;-54
2020/12/14 00:09:43;;;;;;;69.85;36.15;;;;;;;-0.19;77.53;95967.88;4995439;28;20060;-53
2020/12/14 00:12:10;;;;;;;66.88;36.78;;;;;;;-0.14;77.86;95972.50;4996413;28;20611;-53
2020/12/14 00:14:37;;;;;;;68.28;39.20;;;;;;;-0.11;77.63;95980.69;4997698;28;20064;-54
2020/12/14 00:17:05;;;;;;;70.90;38.50;;;;;;;-0.09;77.15;95977.91;5007142;28;20537;-53
2020/12/14 00:19:32;;;;;;;66.00;37.17;;;;;;;-0.14;77.11;95983.66;4992334;28;20049;-56
2020/12/14 00:21:59;;;;;;;70.97;39.63;;;;;;;-0.09;77.67;95983.91;5020474;28;20049;-54
2020/12/14 00:24:27;;;;;;;68.85;38.15;;;;;;;-0.08;77.57;95987.28;5007047;28;20060;-55
2020/12/14 00:26:53;;;;;;;70.68;37.30;;;;;;;-0.13;77.34;95994.84;4998763;28;20060;-54
2020/12/14 00:29:21;;;;;;;62.22;33.97;;;;;;;-0.14;77.85;95999.22;4995156;28;20063;-54
2020/12/14 00:31:54;;;;;;;65.78;35.55;;;;;;;-0.11;77.72;95998.84;4993082;28;20065;-55
2020/12/14 00:34:23;;;;;;;62.95;34.40;;;;;;;-0.07;77.55;96007.06;5006612;28;20056;-55
2020/12/14 00:37:04;;;;;;;60.78;34.40;;;;;;;-0.06;77.68;96008.66;5002749;28;20390;-55
2020/12/14 00:39:31;;;;;;;60.72;34.55;;;;;;;-0.04;77.69;96017.84;5006733;28;20068;-53
2020/12/14 00:41:59;;;;;;;61.03;33.72;;;;;;;-0.01;77.22;96009.72;4999090;28;20049;-53
2020/12/14 00:44:26;;;;;;;62.15;35.65;;;;;;;0.01;76.92;96008.72;4979981;28;20049;-53
2020/12/14 00:46:53;;;;;;;63.72;33.33;;;;;;;-0.08;76.82;96016.63;5041611;28;20049;-55
2020/12/14 00:49:22;;;;;;;66.35;35.75;;;;;;;-0.05;77.21;96012.88;5006128;28;20537;-53
2020/12/14 00:51:50;;;;;;;56.17;31.45;;;;;;;-0.07;76.82;96020.84;5028594;28;20053;-55
2020/12/14 00:54:17;;;;;;;65.00;35.78;;;;;;;-0.02;77.38;96015.09;5004152;28;20052;-55
2020/12/14 00:56:44;;;;;;;61.17;35.60;;;;;;;-0.02;76.78;96015.88;4998126;28;20064;-56
2020/12/14 00:59:12;;;;;;;56.13;32.33;;;;;;;0.01;76.64;96022.47;4995125;28;20060;-55
2020/12/14 01:01:39;;;;;;;60.22;32.63;;;;;;;-0.02;76.24;96025.47;5036554;28;20064;-53
2020/12/14 01:04:07;;;;;;;60.00;31.67;;;;;;;-0.05;76.54;96024.03;5023812;28;20049;-54
2020/12/14 01:06:34;;;;;;;58.13;32.50;;;;;;;0.00;77.02;96033.88;5006687;28;20064;-53
2020/12/14 01:09:02;;;;;;;59.60;30.63;;;;;;;-0.07;76.97;96027.81;4985392;28;20053;-54
2020/12/14 01:11:29;;;;;;;59.38;32.65;;;;;;;-0.06;77.30;96024.22;5036801;28;20055;-54
2020/12/14 01:13:56;;;;;;;56.15;32.65;;;;;;;-0.10;77.48;96028.97;4996507;28;20053;-54
2020/12/14 01:16:24;;;;;;;60.80;32.72;;;;;;;-0.07;76.64;96027.81;4996166;28;20049;-55
2020/12/14 01:18:51;;;;;;;59.35;30.25;;;;;;;-0.19;76.81;96023.09;5013651;28;20387;-55
2020/12/14 01:21:24;;;;;;;61.20;33.55;;;;;;;-0.25;76.88;96034.22;4994363;28;20053;-54
2020/12/14 01:23:51;;;;;;;58.83;31.33;;;;;;;-0.28;77.54;96031.19;5003307;28;20049;-54
2020/12/14 01:26:19;;;;;;;61.22;33.90;;;;;;;-0.28;77.99;96028.59;5015490;28;20053;-55
2020/12/14 01:28:46;;;;;;;56.50;30.63;;;;;;;-0.20;77.41;96039.66;5038689;28;20069;-54
2020/12/14 01:31:13;;;;;;;62.78;34.30;;;;;;;-0.22;77.90;96040.84;5050319;28;20065;-55
2020/12/14 01:33:42;;;;;;;53.95;31.90;;;;;;;-0.21;77.70;96032.06;5012096;28;20060;-55
2020/12/14 01:36:10;;;;;;;67.80;33.25;;;;;;;-0.14;77.66;96038.09;5000063;28;22068;-53
2020/12/14 01:38:37;;;;;;;64.85;36.20;;;;;;;-0.07;77.29;96038.19;5002399;28;20057;-53
2020/12/14 01:41:04;;;;;;;61.42;34.30;;;;;;;-0.12;77.61;96035.34;5005492;28;20053;-54
2020/12/14 01:43:31;;;;;;;67.40;34.30;;;;;;;-0.15;77.79;96033.91;5005243;28;20052;-55
2020/12/14 01:45:58;;;;;;;63.13;35.90;;;;;;;-0.18;77.92;96031.69;4996735;28;20053;-55
2020/12/14 01:48:26;;;;;;;65.07;34.33;;;;;;;-0.21;78.29;96026.88;4997737;28;20785;-55
2020/12/14 01:50:54;;;;;;;71.63;35.17;;;;;;;-0.25;78.03;96021.28;4998042;28;20377;-55
2020/12/14 01:53:22;;;;;;;64.75;34.08;;;;;;;-0.22;78.51;96026.06;5014066;28;20049;-55
2020/12/14 01:55:54;;;;;;;59.65;32.28;;;;;;;-0.19;78.61;96030.09;5016359;28;20080;-54
2020/12/14 01:58:22;;;;;;;66.00;33.20;;;;;;;-0.18;78.05;96032.50;4999685;28;20428;-54
2020/12/14 02:00:50;;;;;;;63.05;33.60;;;;;;;-0.17;78.02;96033.28;4998819;28;20061;-54
2020/12/14 02:03:18;;;;;;;62.67;34.13;;;;;;;-0.16;78.52;96035.72;4982073;28;20049;-55
2020/12/14 02:05:46;;;;;;;72.53;37.42;;;;;;;-0.14;77.46;96025.16;4993597;28;20053;-55
2020/12/14 02:08:13;;;;;;;56.22;36.65;;;;;;;-0.16;77.72;96024.53;5031567;28;20252;-55
2020/12/14 02:10:40;;;;;;;65.22;36.28;;;;;;;-0.12;77.82;96030.94;5007960;28;20053;-54
2020/12/14 02:13:07;;;;;;;64.38;34.35;;;;;;;-0.19;78.25;96032.69;5000506;28;20601;-54
2020/12/14 02:15:34;;;;;;;63.35;36.08;;;;;;;-0.17;78.42;96028.09;5015815;28;20119;-54
2020/12/14 02:18:02;;;;;;;60.35;34.13;;;;;;;-0.07;78.22;96027.81;5004103;28;20061;-54
2020/12/14 02:20:30;;;;;;;65.35;36.53;;;;;;;0.02;77.95;96034.47;5020118;28;20662;-54
2020/12/14 02:22:57;;;;;;;58.58;33.63;;;;;;;0.02;77.77;96034.47;4998592;28;20045;-55
2020/12/14 02:25:24;;;;;;;69.03;38.88;;;;;;;0.04;78.04;96039.47;5012587;28;20935;-55
2020/12/14 02:27:51;;;;;;;63.50;33.60;;;;;;;0.10;77.63;96038.72;5003942;28;20057;-54
2020/12/14 02:30:19;;;;;;;61.20;35.92;;;;;;;0.12;78.01;96031.56;5016757;28;20069;-54
2020/12/14 02:32:46;;;;;;;66.00;35.80;;;;;;;0.10;77.97;96036.13;5028525;28;20050;-55
2020/12/14 02:35:13;;;;;;;67.10;36.33;;;;;;;0.04;77.67;96035.09;4996846;28;20056;-53
2020/12/14 02:37:40;;;;;;;64.47;35.95;;;;;;;-0.05;78.03;96038.78;5006781;28;20060;-54
2020/12/14 02:40:08;;;;;;;66.18;34.85;;;;;;;-0.34;78.30;95999.84;5004098;28;20045;-55
2020/12/14 02:42:35;;;;;;;66.35;36.15;;;;;;;-0.03;78.58;96045.41;4989250;28;20065;-54
2020/12/14 02:45:02;;;;;;;67.20;38.92;;;;;;;-0.01;78.36;96046.00;5006166;28;20053;-54
2020/12/14 02:47:29;;;;;;;60.78;35.17;;;;;;;-0.06;78.38;96045.75;5020197;28;20061;-56
2020/12/14 02:49:57;;;;;;;69.55;38.60;;;;;;;-0.12;78.84;96049.09;4999023;28;20061;-55
2020/12/14 02:52:25;;;;;;;60.45;34.47;;;;;;;-0.17;78.68;96056.63;5026603;28;20137;-54
2020/12/14 02:54:52;;;;;;;69.47;38.38;;;;;;;-0.20;78.64;96049.22;5004086;28;20050;-55
2020/12/14 02:57:19;;;;;;;62.78;34.60;;;;;;;-0.16;78.69;96050.44;5033680;28;20061;-55
2020/12/14 02:59:46;;;;;;;62.50;35.90;;;;;;;-0.09;78.89;96059.13;5004564;28;20064;-54
2020/12/14 03:02:13;;;;;;;69.15;38.35;;;;;;;-0.01;78.57;96061.56;4999679;28;20084;-55
2020/12/14 03:04:41;;;;;;;65.13;34.13;;;;;;;0.03;78.00;96061.22;5000542;28;20059;-55
2020/12/14 03:07:08;;;;;;;64.75;36.97;;;;;;;0.04;77.95;96050.66;4980807;28;20069;-55
2020/12/14 03:09:35;;;;;;;65.00;34.75;;;;;;;0.06;78.15;96055.66;5003035;28;20076;-54
2020/12/14 03:12:03;;;;;;;69.97;35.47;;;;;;;-0.05;77.96;96057.75;5030209;28;20591;-54
2020/12/14 03:14:30;;;;;;;71.47;38.05;;;;;;;-0.08;78.33;96058.13;5002200;28;20942;-55
2020/12/14 03:16:57;;;;;;;69.43;37.83;;;;;;;-0.16;78.71;96064.22;5002015;28;20532;-53
2020/12/14 03:19:25;;;;;;;63.80;34.10;;;;;;;-0.16;78.75;96066.81;5015769;28;20049;-54
2020/12/14 03:21:52;;;;;;;68.45;36.05;;;;;;;-0.09;78.61;96072.09;5001172;28;20060;-56
2020/12/14 03:24:20;;;;;;;63.13;34.65;;;;;;;-0.08;78.62;96076.28;4995756;28;20057;-53
2020/12/14 03:26:49;;;;;;;73.93;38.05;;;;;;;-0.10;78.41;96070.47;4998652;28;20041;-53
2020/12/14 03:29:17;;;;;;;66.35;36.38;;;;;;;-0.16;78.65;96087.56;4997695;28;20064;-54
2020/12/14 03:31:44;;;;;;;73.80;38.55;;;;;;;-0.14;78.52;96079.59;4975961;28;20057;-54
2020/12/14 03:34:12;;;;;;;73.47;39.75;;;;;;;-0.24;79.40;96077.28;5035874;28;20406;-55
2020/12/14 03:36:39;;;;;;;59.50;33.25;;;;;;;-0.18;79.25;96086.13;5032715;28;20060;-56
2020/12/14 03:39:09;;;;;;;65.22;34.75;;;;;;;-0.08;78.66;96089.25;5008516;28;20060;-54
2020/12/14 03:41:36;;;;;;;66.15;35.83;;;;;;;-0.06;78.24;96082.06;4984597;28;20064;-55
2020/12/14 03:44:03;;;;;;;63.72;36.33;;;;;;;-0.01;78.15;96089.31;5037517;28;20056;-55
2020/12/14 03:46:35;;;;;;;62.63;34.45;;;;;;;0.04;78.47;96091.34;5008166;28;20619;-54
2020/12/14 03:49:02;;;;;;;69.30;38.83;;;;;;;-0.05;77.60;96104.41;5009846;28;20053;-55
2020/12/14 03:51:31;;;;;;;68.95;38.85;;;;;;;-0.19;78.14;96103.47;4993067;28;20054;-54
2020/12/14 03:53:58;;;;;;;64.57;34.70;;;;;;;-0.26;78.56;96102.63;5017075;28;20053;-54
2020/12/14 03:56:26;;;;;;;60.47;33.95;;;;;;;-0.26;78.29;96094.84;5008047;28;20045;-54
2020/12/14 03:58:54;;;;;;;62.08;35.78;;;;;;;-0.18;78.35;96099.09;5003457;28;20509;-57
2020/12/14 04:01:23;;;;;;;67.88;34.35;;;;;;;-0.18;77.98;96107.69;5000463;28;20057;-53
2020/12/14 04:03:52;;;;;;;66.85;36.33;;;;;;;-0.21;78.29;96099.47;5002670;28;20045;-54
2020/12/14 04:06:25;;;;;;;66.28;36.67;;;;;;;-0.15;78.40;96098.72;5035535;28;20068;-56
2020/12/14 04:08:54;;;;;;;57.78;33.83;;;;;;;-0.14;78.48;96102.94;5009829;28;20065;-54
2020/12/14 04:11:23;;;;;;;65.78;33.67;;;;;;;-0.08;78.03;96110.00;4996171;28;20084;-56
2020/12/14 04:13:51;;;;;;;63.30;32.78;;;;;;;-0.04;77.68;96111.22;5009320;28;20053;-58
2020/12/14 04:16:18;;;;;;;64.53;36.38;;;;;;;-0.11;77.55;96112.94;5036019;28;20328;-55
2020/12/14 04:18:46;;;;;;;67.90;38.28;;;;;;;-0.23;78.13;96120.38;5039094;28;20061;-53
2020/12/14 04:21:13;;;;;;;62.65;34.60;;;;;;;-0.21;78.59;96122.81;5004137;28;20828;-54
2020/12/14 04:23:40;;;;;;;65.55;35.20;;;;;;;-0.18;78.55;96122.41;5001463;28;20053;-57
2020/12/14 04:26:07;;;;;;;76.72;38.75;;;;;;;-0.22;78.54;96132.34;4992880;28;20049;-52
2020/12/14 04:28:34;;;;;;;68.10;39.80;;;;;;;-0.24;78.93;96130.94;5014269;28;20072;-53
2020/12/14 04:31:02;;;;;;;72.22;40.60;;;;;;;-0.39;78.80;96124.00;5008804;28;20053;-53
2020/12/14 04:33:30;;;;;;;55.95;32.83;;;;;;;-0.24;78.43;96142.09;5037742;28;20076;-53
2020/12/14 04:35:58;;;;;;;61.35;32.70;;;;;;;-0.25;78.17;96145.72;5035910;28;20056;-55
2020/12/14 04:38:26;;;;;;;57.28;31.50;;;;;;;-0.23;77.80;96143.72;5036508;28;20734;-55
2020/12/14 04:40:53;;;;;;;59.75;32.42;;;;;;;-0.23;77.80;96158.47;5001344;28;20057;-53
2020/12/14 04:43:22;;;;;;;61.35;31.35;;;;;;;-0.27;77.86;96152.03;5042297;28;20569;-54
2020/12/14 04:45:50;;;;;;;55.05;31.27;;;;;;;-0.30;78.00;96153.22;4986678;28;20044;-55
2020/12/14 04:48:18;;;;;;;62.95;33.47;;;;;;;-0.37;78.20;96154.94;5010126;28;20072;-53
2020/12/14 04:50:46;;;;;;;65.75;31.55;;;;;;;-0.41;78.65;96164.03;5017365;28;20049;-54
2020/12/14 04:53:13;;;;;;;68.28;36.55;;;;;;;-0.47;78.41;96157.78;5011555;28;20651;-57
2020/12/14 04:55:40;;;;;;;58.55;31.27;;;;;;;-0.57;79.08;96159.84;5013525;28;21076;-52
2020/12/14 04:58:07;;;;;;;65.00;32.88;;;;;;;-0.63;78.58;96169.94;5017620;28;20064;-52
2020/12/14 05:00:36;;;;;;;67.35;33.65;;;;;;;-0.59;79.18;96167.78;4999256;28;20415;-54
2020/12/14 05:03:03;;;;;;;59.78;31.02;;;;;;;-0.60;78.82;96173.94;4997322;28;20064;-58
2020/12/14 05:05:31;;;;;;;59.30;32.95;;;;;;;-0.54;78.55;96177.59;5034865;28;20052;-53
2020/12/14 05:07:59;;;;;;;61.75;30.83;;;;;;;-0.53;79.04;96192.19;5038600;28;20045;-53
2020/12/14 05:10:28;;;;;;;73.45;34.90;;;;;;;-0.53;78.37;96185.22;5008538;28;20080;-54
2020/12/14 05:12:56;;;;;;;62.63;32.47;;;;;;;-0.51;78.93;96195.41;5040291;28;20053;-56
2020/12/14 05:15:28;;;;;;;68.70;34.58;;;;;;;-0.44;78.48;96192.91;5018215;28;20357;-53
2020/12/14 05:18:11;;;;;;;63.90;34.67;;;;;;;-0.45;78.66;96194.69;5001981;28;20064;-54
2020/12/14 05:21:15;;;;;;;56.70;30.60;;;;;;;-0.53;78.88;96194.78;5006728;28;20627;-54
2020/12/14 05:23:43;;;;;;;62.67;32.20;;;;;;;-0.64;79.12;96204.59;4962040;28;20713;-54
2020/12/14 05:26:13;;;;;;;66.00;32.42;;;;;;;-0.65;79.51;96208.16;4994369;28;20057;-53
2020/12/14 05:28:40;;;;;;;64.25;36.22;;;;;;;-0.62;79.78;96218.19;5020463;28;20049;-55
2020/12/14 05:31:18;;;;;;;68.10;35.65;;;;;;;-0.57;79.40;96215.06;5026053;28;20064;-54
2020/12/14 05:33:46;;;;;;;65.80;35.88;;;;;;;-0.53;79.79;96224.09;5005320;28;20049;-54
2020/12/14 05:36:16;;;;;;;70.85;37.20;;;;;;;-0.55;80.07;96233.81;5005318;28;20061;-55
2020/12/14 05:38:43;;;;;;;63.75;37.22;;;;;;;-0.59;80.02;96227.38;4990577;28;20049;-53
2020/12/14 05:41:10;;;;;;;76.85;39.88;;;;;;;-0.58;79.99;96234.16;5001824;28;20064;-52
2020/12/14 05:43:37;;;;;;;74.00;38.80;;;;;;;-0.66;80.36;96237.63;4994133;28;20068;-54
2020/12/14 05:46:12;;;;;;;78.22;39.35;;;;;;;-0.71;80.91;96237.38;4994901;28;20631;-53
2020/12/14 05:48:42;;;;;;;77.28;40.20;;;;;;;-0.70;81.14;96239.00;5006249;28;20049;-53
2020/12/14 05:51:11;;;;;;;75.80;35.20;;;;;;;-0.68;80.92;96246.56;5030884;28;20255;-54
2020/12/14 05:53:41;;;;;;;79.82;37.83;;;;;;;-0.72;81.04;96248.72;5025170;28;20053;-53
2020/12/14 05:56:09;;;;;;;70.10;35.22;;;;;;;-0.73;81.37;96251.47;5001945;28;20041;-55
2020/12/14 05:58:39;;;;;;;77.30;37.75;;;;;;;-0.74;81.39;96261.03;5016576;28;20057;-54
2020/12/14 06:01:08;;;;;;;76.10;38.20;;;;;;;-0.73;80.95;96254.06;5037109;28;20498;-53
2020/12/14 06:03:36;;;;;;;77.20;36.80;;;;;;;-0.72;81.15;96256.50;5042568;28;20072;-53
2020/12/14 06:06:06;;;;;;;74.25;37.05;;;;;;;-0.75;81.61;96258.63;5037742;28;20438;-54
2020/12/14 06:08:45;;;;;;;69.43;37.00;;;;;;;-0.76;81.40;96259.63;5001130;28;20065;-55
2020/12/14 06:11:20;;;;;;;78.63;42.20;;;;;;;-0.74;80.85;96261.03;5037784;28;20174;-55
2020/12/14 06:13:59;;;;;;;71.18;35.92;;;;;;;-0.78;80.84;96264.94;5010650;28;20140;-54
2020/12/14 06:16:31;;;;;;;81.00;40.13;;;;;;;-0.78;81.10;96275.31;5022499;28;20049;-54
2020/12/14 06:19:01;;;;;;;74.93;38.00;;;;;;;-0.78;81.03;96276.13;5010683;28;20745;-55
2020/12/14 06:21:45;;;;;;;74.60;37.53;;;;;;;-0.78;81.06;96280.50;5008121;28;20053;-54
2020/12/14 06:24:21;;;;;;;75.85;39.10;;;;;;;-0.78;80.81;96281.31;5020526;28;20458;-55
2020/12/14 06:26:49;;;;;;;72.88;39.72;;;;;;;-0.79;81.16;96282.28;5028254;28;20060;-53
2020/12/14 06:29:38;;;;;;;82.22;37.42;;;;;;;-0.74;81.62;96273.19;5002379;28;20064;-54
2020/12/14 06:32:36;;;;;;;85.07;42.20;;;;;;;-0.67;81.18;96282.66;5013552;28;20229;-53
2020/12/14 06:35:16;;;;;;;71.38;38.47;;;;;;;-0.67;80.67;96277.47;5012478;28;20045;-54
2020/12/14 06:37:49;;;;;;;77.15;39.30;;;;;;;-0.64;80.47;96292.69;5030189;28;20053;-54
2020/12/14 06:40:17;;;;;;;72.65;36.53;;;;;;;-0.68;80.42;96293.22;4995798;28;20057;-54
2020/12/14 06:42:46;;;;;;;77.20;40.35;;;;;;;-0.71;80.92;96291.78;4998883;28;20053;-55
2020/12/14 06:45:16;;;;;;;81.60;41.33;;;;;;;-0.73;80.97;96292.91;5010244;28;20057;-54
2020/12/14 06:47:48;;;;;;;68.03;37.00;;;;;;;-0.67;80.98;96302.59;5031851;28;20061;-55
2020/12/14 06:50:55;;;;;;;73.43;41.75;;;;;;;-0.70;80.33;96297.75;5009092;28;20060;-55
2020/12/14 06:53:54;;;;;;;66.00;35.55;;;;;;;-0.74;80.36;96296.53;4983958;28;20083;-53
2020/12/14 06:56:27;;;;;;;64.18;34.70;;;;;;;-0.69;80.16;96309.72;5001417;28;20064;-61
2020/12/14 06:58:55;;;;;;;65.40;35.60;;;;;;;-0.69;80.28;96304.56;5050496;28;20498;-55
2020/12/14 07:01:40;;;;;;;75.07;36.65;;;;;;;-0.70;80.04;96301.16;5004843;28;20050;-52
2020/12/14 07:04:36;;;;;;;83.47;40.45;;;;;;;-0.72;80.77;96304.91;5050923;28;20542;-58
2020/12/14 07:07:06;;;;;;;69.60;39.05;;;;;;;-0.68;80.86;96314.75;5013712;28;20049;-54
2020/12/14 07:09:38;;;;;;;68.22;34.80;;;;;;;-0.68;80.40;96325.13;5044275;28;20677;-57
2020/12/14 07:12:08;;;;;;;73.20;37.70;;;;;;;-0.75;80.95;96310.44;5047435;28;20643;-55
2020/12/14 07:14:46;;;;;;;67.25;36.53;;;;;;;-0.76;80.85;96325.16;5019302;28;20223;-54
2020/12/14 07:17:23;;;;;;;72.28;36.22;;;;;;;-0.81;80.86;96327.50;5012335;28;20461;-53
2020/12/14 07:19:52;;;;;;;74.57;36.10;;;;;;;-0.81;81.35;96340.44;5006943;28;20061;-54
2020/12/14 07:22:23;;;;;;;81.32;38.67;;;;;;;-0.76;81.02;96338.13;5035842;28;20064;-54
2020/12/14 07:25:24;;;;;;;77.15;38.72;;;;;;;-0.74;81.02;96348.31;4997475;28;20194;-55
2020/12/14 07:27:51;;;;;;;76.90;36.97;;;;;;;-0.71;80.87;96346.19;5007663;28;20049;-54
2020/12/14 07:30:19;;;;;;;78.47;38.75;;;;;;;-0.70;81.05;96350.41;5020353;28;20251;-54
2020/12/14 07:32:47;;;;;;;63.22;38.50;;;;;;;-0.64;81.01;96343.72;5006410;28;20528;-57
2020/12/14 07:35:16;;;;;;;77.20;36.28;;;;;;;-0.62;80.49;96339.16;5032900;28;20060;-56
2020/12/14 07:37:43;;;;;;;85.07;38.58;;;;;;;-0.61;80.37;96338.16;5017363;28;20064;-54
2020/12/14 07:40:11;;;;;;;77.50;35.53;;;;;;;-0.58;80.11;96347.38;5006892;28;20053;-55
2020/12/14 07:42:44;;;;;;;79.47;35.75;;;;;;;-0.49;80.26;96352.31;5014053;28;20061;-55
2020/12/14 07:45:21;;;;;;;78.90;40.50;;;;;;;-0.49;80.19;96346.34;5042506;28;20045;-54
2020/12/14 07:47:52;;;;;;;;;;;;;;;-0.50;80.67;96360.28;5009671;28;20056;-55
2020/12/14 07:50:25;;;;;;;67.07;35.10;;;;;;;-0.50;80.02;96355.91;5019069;28;19932;-55
2020/12/14 07:52:54;;;;;;;74.22;36.42;;;;;;;-0.49;79.59;96356.69;5010640;28;20056;-53
2020/12/14 07:55:26;;;;;;;70.88;37.05;;;;;;;-0.51;79.74;96353.47;5024172;28;20046;-54
2020/12/14 07:57:54;;;;;;;67.85;33.00;;;;;;;-0.59;79.28;96351.75;5016853;28;20425;-55
2020/12/14 08:00:24;;;;;;;67.47;34.65;;;;;;;-0.59;80.08;96341.38;5023346;28;20314;-53
2020/12/14 08:03:00;;;;;;;66.20;34.25;;;;;;;-0.45;80.17;96344.19;5008022;28;20053;-53
2020/12/14 08:05:27;;;;;;;61.85;35.33;;;;;;;-0.37;79.79;96339.75;5018718;28;20543;-55
2020/12/14 08:08:02;;;;;;;66.25;34.17;;;;;;;-0.34;79.09;96333.41;5011667;28;20492;-54
2020/12/14 08:10:31;;;;;;;63.17;33.67;;;;;;;-0.36;78.59;96341.38;5018652;28;20060;-55
2020/12/14 08:13:01;;;;;;;61.22;32.58;;;;;;;-0.32;78.76;96345.22;5017612;28;20053;-53
2020/12/14 08:15:31;;;;;;;57.28;31.23;;;;;;;-0.32;78.34;96337.44;5009998;28;20045;-53
2020/12/14 08:17:59;;;;;;;57.13;32.08;;;;;;;-0.28;78.10;96347.44;5006882;28;20056;-57
2020/12/14 08:20:28;;;;;;;52.40;29.88;;;;;;;-0.28;77.99;96355.22;5018257;28;20429;-54
2020/12/14 08:23:00;;;;;;;55.58;32.15;;;;;;;-0.25;78.06;96349.69;5012671;28;20057;-54
2020/12/14 08:25:31;;;;;;;55.58;31.42;;;;;;;-0.23;77.65;96356.31;5011460;28;20550;-58
2020/12/14 08:28:01;;;;;;;56.63;28.02;;;;;;;-0.21;77.45;96358.75;5030017;28;20071;-54
2020/12/14 08:30:31;;;;;;;55.72;29.25;;;;;;;-0.21;77.08;96358.75;5003560;28;20893;-55
2020/12/14 08:33:07;;;;;;;58.08;30.40;;;;;;;-0.22;76.67;96362.31;5014191;28;20069;-55
2020/12/14 08:35:38;;;;;;;53.08;29.70;;;;;;;-0.24;77.34;96353.91;5014573;28;20060;-53
2020/12/14 08:38:27;;;;;;;63.75;31.88;;;;;;;-0.20;76.98;96365.53;5018834;28;20046;-53
2020/12/14 08:41:03;;;;;;;59.22;30.25;;;;;;;-0.22;77.50;96362.31;4998384;28;20061;-54
2020/12/14 08:43:36;;;;;;;77.53;36.00;;;;;;;-0.17;77.25;96365.16;5049295;28;20057;-53
2020/12/14 08:46:11;;;;;;;68.40;36.20;;;;;;;-0.18;77.22;96354.00;5032032;28;20045;-56
2020/12/14 08:48:57;;;;;;;62.85;31.48;;;;;;;-0.19;77.48;96364.56;5061635;28;20065;-54
2020/12/14 08:51:33;;;;;;;60.05;30.60;;;;;;;-0.11;76.92;96366.25;5014990;28;20084;-53
2020/12/14 08:54:11;;;;;;;61.00;32.22;;;;;;;-0.10;77.08;96345.34;4993674;28;20057;-53
2020/12/14 08:56:39;;;;;;;56.53;29.58;;;;;;;-0.10;76.79;96344.53;5032911;28;20056;-54
2020/12/14 08:59:12;;;;;;;62.53;31.25;;;;;;;-0.12;77.38;96347.31;4995755;28;20045;-55
2020/12/14 09:01:40;;;;;;;58.08;30.73;;;;;;;-0.08;76.49;96345.97;5018879;28;20045;-55
2020/12/14 09:04:07;;;;;;;60.45;31.70;;;;;;;-0.20;77.08;96339.63;5009883;28;20064;-53
2020/12/14 09:06:37;;;;;;;58.92;29.98;;;;;;;-0.11;76.83;96354.09;5049648;28;20456;-53
2020/12/14 09:09:06;;;;;;;57.22;30.95;;;;;;;-0.10;76.73;96352.31;5024180;28;20686;-53
2020/12/14 09:11:36;;;;;;;60.60;30.23;;;;;;;-0.12;76.44;96344.72;5024902;28;20053;-54
2020/12/14 09:14:06;;;;;;;57.75;29.65;;;;;;;-0.10;77.09;96347.94;5019513;28;20100;-54
2020/12/14 09:16:34;;;;;;;60.85;29.67;;;;;;;-0.10;76.29;96347.94;5017947;28;20423;-52
2020/12/14 09:19:03;;;;;;;51.63;29.40;;;;;;;-0.10;76.47;96340.16;5030233;28;21040;-54
2020/12/14 09:21:33;;;;;;;57.35;29.83;;;;;;;-0.08;76.78;96338.19;5008567;28;20108;-55
2020/12/14 09:24:27;;;;;;;56.75;30.67;;;;;;;-0.05;76.61;96337.81;5008959;28;20049;-54
2020/12/14 09:27:13;;;;;;;54.28;30.80;;;;;;;-0.04;76.69;96338.63;5021093;28;20512;-55
2020/12/14 09:29:42;;;;;;;52.67;27.58;;;;;;;-0.05;76.62;96335.22;5031568;28;20401;-55
2020/12/14 09:32:11;;;;;;;59.67;30.38;;;;;;;0.02;76.49;96337.13;5027488;28;20058;-55
2020/12/14 09:34:40;;;;;;;50.67;29.42;;;;;;;-0.01;76.18;96331.31;5016000;28;20057;-55
2020/12/14 09:37:07;;;;;;;47.97;27.73;;;;;;;0.03;76.12;96330.94;5022518;28;20049;-56
2020/12/14 09:39:35;;;;;;;49.78;27.80;;;;;;;0.09;76.01;96338.81;5013783;28;20061;-55
2020/12/14 09:42:03;;;;;;;59.05;31.45;;;;;;;0.18;75.91;96342.16;5005427;28;20049;-55
2020/12/14 09:44:31;;;;;;;46.42;28.63;;;;;;;0.12;76.19;96345.44;5012426;28;20057;-54
2020/12/14 09:47:00;;;;;;;52.10;28.77;;;;;;;0.17;75.95;96343.13;5012765;28;20050;-53
2020/12/14 09:49:29;;;;;;;54.80;27.83;;;;;;;0.15;76.48;96339.91;5000028;28;20746;-55
2020/12/14 09:52:05;;;;;;;57.83;29.70;;;;;;;0.12;76.13;96335.84;5004903;28;20057;-55
2020/12/14 09:54:32;;;;;;;56.72;28.42;;;;;;;0.04;76.74;96333.34;5040751;28;20053;-53
2020/12/14 09:56:59;;;;;;;60.58;31.48;;;;;;;-0.03;77.42;96337.66;5029455;28;20049;-54
2020/12/14 09:59:26;;;;;;;63.60;33.25;;;;;;;-0.14;77.26;96338.88;5031050;28;20064;-52
2020/12/14 10:01:54;;;;;;;61.50;32.30;;;;;;;-0.14;77.94;96333.69;5045323;28;20417;-55
2020/12/14 10:04:22;;;;;;;63.03;30.50;;;;;;;-0.11;78.01;96328.16;5047269;28;20061;-55
2020/12/14 10:06:49;;;;;;;63.88;34.20;;;;;;;-0.12;78.31;96339.53;5028610;28;20053;-53
2020/12/14 10:09:16;;;;;;;61.15;33.47;;;;;;;-0.10;77.95;96336.75;5012022;28;20058;-54
2020/12/14 10:11:43;;;;;;;68.00;35.15;;;;;;;-0.17;78.18;96337.47;5025835;28;20469;-53
2020/12/14 10:14:11;;;;;;;66.93;33.97;;;;;;;-0.10;78.70;96334.97;5018067;28;20060;-54
2020/12/14 10:16:38;;;;;;;62.50;30.55;;;;;;;-0.04;78.41;96336.03;5013371;28;20048;-55
2020/12/14 10:19:13;;;;;;;63.40;33.92;;;;;;;-0.01;77.99;96328.72;5044179;28;20057;-53
2020/12/14 10:21:42;;;;;;;66.50;32.30;;;;;;;0.01;78.02;96335.50;5010997;28;20532;-53
2020/12/14 10:24:10;;;;;;;65.45;34.88;;;;;;;0.04;77.98;96320.38;5032639;28;20056;-52
2020/12/14 10:26:38;;;;;;;60.83;32.63;;;;;;;0.08;77.55;96320.84;5009608;28;20054;-53
2020/12/14 10:29:05;;;;;;;70.70;34.67;;;;;;;0.08;78.06;96313.88;5016384;28;20242;-58
2020/12/14 10:31:32;;;;;;;60.35;31.55;;;;;;;0.14;78.04;96317.53;5033002;28;20056;-53
2020/12/14 10:34:01;;;;;;;60.15;28.75;;;;;;;0.15;77.83;96308.78;5027346;28;20731;-53
2020/12/14 10:36:28;;;;;;;55.65;27.50;;;;;;;0.20;76.90;96303.03;5006594;28;20520;-53
2020/12/14 10:38:56;;;;;;;50.75;27.15;;;;;;;0.18;76.87;96305.00;5011420;28;20418;-54
2020/12/14 10:41:23;;;;;;;58.20;30.65;;;;;;;0.08;77.61;96311.28;5017206;28;20057;-53
2020/12/14 10:43:50;;;;;;;54.67;29.52;;;;;;;0.06;77.47;96315.03;5006134;28;20060;-54
2020/12/14 10:46:23;;;;;;;59.85;29.85;;;;;;;0.03;77.67;96313.59;5025683;28;20087;-53
2020/12/14 10:48:51;;;;;;;64.50;32.13;;;;;;;0.05;78.27;96316.81;5039731;28;20053;-54
2020/12/14 10:51:18;;;;;;;57.03;31.60;;;;;;;0.09;77.80;96315.47;5009606;28;20236;-55
2020/12/14 10:53:46;;;;;;;68.53;33.53;;;;;;;0.08;78.26;96313.06;5020518;28;20061;-54
2020/12/14 10:56:15;;;;;;;72.05;34.45;;;;;;;0.10;78.19;96317.09;5002997;28;20053;-55
2020/12/14 10:58:44;;;;;;;72.03;34.30;;;;;;;0.04;78.16;96311.81;5063095;28;20662;-58
2020/12/14 11:01:12;;;;;;;67.07;32.03;;;;;;;0.09;78.17;96310.28;5024199;28;20053;-55
2020/12/14 11:03:39;;;;;;;65.07;31.90;;;;;;;0.17;78.25;96300.78;4991351;28;20505;-57
2020/12/14 11:06:08;;;;;;;67.80;33.85;;;;;;;0.16;77.98;96307.78;5043228;28;20325;-59
2020/12/14 11:08:35;;;;;;;79.53;34.80;;;;;;;0.25;78.55;96301.50;4987717;28;20428;-55
2020/12/14 11:11:03;;;;;;;67.15;33.35;;;;;;;0.29;77.97;96302.78;5002491;28;20053;-55
2020/12/14 11:13:30;;;;;;;65.60;35.22;;;;;;;0.33;77.39;96303.22;5007214;28;22182;-53
2020/12/14 11:15:59;;;;;;;62.42;30.63;;;;;;;0.39;77.19;96301.69;5033005;28;20540;-53
2020/12/14 11:18:29;;;;;;;65.95;32.50;;;;;;;0.37;77.24;96303.66;5016998;28;20058;-52
2020/12/14 11:20:57;;;;;;;62.92;29.92;;;;;;;0.34;77.31;96302.22;5019222;28;20064;-52
2020/12/14 11:23:24;;;;;;;68.80;32.38;;;;;;;0.41;77.55;96307.50;5006548;28;20832;-52
2020/12/14 11:25:51;;;;;;;56.97;31.35;;;;;;;0.48;76.88;96300.59;5017566;28;20060;-54
2020/12/14 11:28:22;;;;;;;54.00;29.77;;;;;;;0.55;77.14;96306.66;5006673;28;20057;-56
2020/12/14 11:30:49;;;;;;;58.15;31.65;;;;;;;0.66;76.85;96307.19;5011653;28;20501;-52
2020/12/14 11:33:17;;;;;;;61.72;29.98;;;;;;;0.73;75.92;96305.44;5022092;28;20064;-54